sensor_id;sensor_type;location;lat;lon;timestamp;pressure;altitude;pressure_sealevel;temperature;humidity
54872;BME280;43914;57.680;11.982;2023-02-18T00:01:17;98820.80;;;5.00;71.49
54872;BME280;43914;57.680;11.982;2023-02-18T00:03:44;98823.91;;;4.96;71.75
54872;BME280;43914;57.680;11.982;2023-02-18T00:06:21;98837.57;;;4.92;72.01
54872;BME280;43914;57.680;11.982;2023-02-18T00:08:49;98872.94;;;4.89;71.14
54872;BME280;43914;57.680;11.982;2023-02-18T00:11:15;98868.03;;;4.88;70.89
54872;BME280;43914;57.680;11.982;2023-02-18T00:13:41;98871.13;;;4.88;71.15
54872;BME280;43914;57.680;11.982;2023-02-18T00:16:14;98878.42;;;4.88;71.25
54872;BME280;43914;57.680;11.982;2023-02-18T00:18:45;98870.67;;;4.86;71.96
54872;BME280;43914;57.680;11.982;2023-02-18T00:21:10;98890.84;;;4.85;72.42
54872;BME280;43914;57.680;11.982;2023-02-18T00:23:36;98885.02;;;4.83;72.66
54872;BME280;43914;57.680;11.982;2023-02-18T00:26:13;98906.16;;;4.81;73.13
54872;BME280;43914;57.680;11.982;2023-02-18T00:28:39;98917.21;;;4.81;73.00
54872;BME280;43914;57.680;11.982;2023-02-18T00:31:13;98915.80;;;4.80;73.28
54872;BME280;43914;57.680;11.982;2023-02-18T00:33:40;98934.30;;;4.76;73.01
54872;BME280;43914;57.680;11.982;2023-02-18T00:36:10;98933.38;;;4.75;72.74
54872;BME280;43914;57.680;11.982;2023-02-18T00:38:36;98938.19;;;4.72;72.52
54872;BME280;43914;57.680;11.982;2023-02-18T00:41:02;98953.16;;;4.70;72.51
54872;BME280;43914;57.680;11.982;2023-02-18T00:43:27;98954.04;;;4.67;71.82
54872;BME280;43914;57.680;11.982;2023-02-18T00:45:54;98948.63;;;4.64;71.93
54872;BME280;43914;57.680;11.982;2023-02-18T00:48:19;98968.86;;;4.60;71.66
54872;BME280;43914;57.680;11.982;2023-02-18T00:50:45;98969.86;;;4.57;71.12
54872;BME280;43914;57.680;11.982;2023-02-18T00:53:10;98983.41;;;4.54;70.67
54872;BME280;43914;57.680;11.982;2023-02-18T00:55:40;98974.12;;;4.51;70.97
54872;BME280;43914;57.680;11.982;2023-02-18T00:58:06;98988.67;;;4.49;71.26
54872;BME280;43914;57.680;11.982;2023-02-18T01:00:31;98999.42;;;4.47;70.81
54872;BME280;43914;57.680;11.982;2023-02-18T01:02:57;99001.03;;;4.45;70.90
54872;BME280;43914;57.680;11.982;2023-02-18T01:05:22;99003.63;;;4.43;70.67
54872;BME280;43914;57.680;11.982;2023-02-18T01:07:48;99008.56;;;4.40;70.92
54872;BME280;43914;57.680;11.982;2023-02-18T01:10:14;99015.21;;;4.38;71.32
54872;BME280;43914;57.680;11.982;2023-02-18T01:12:39;99031.73;;;4.35;70.93
54872;BME280;43914;57.680;11.982;2023-02-18T01:15:06;99042.28;;;4.34;70.37
54872;BME280;43914;57.680;11.982;2023-02-18T01:17:32;99029.27;;;4.32;70.60
54872;BME280;43914;57.680;11.982;2023-02-18T01:19:57;99043.86;;;4.30;70.99
54872;BME280;43914;57.680;11.982;2023-02-18T01:22:24;99051.78;;;4.27;70.76
54872;BME280;43914;57.680;11.982;2023-02-18T01:24:49;99057.61;;;4.26;70.58
54872;BME280;43914;57.680;11.982;2023-02-18T01:27:15;99063.84;;;4.24;70.50
54872;BME280;43914;57.680;11.982;2023-02-18T01:29:40;99085.04;;;4.24;70.55
54872;BME280;43914;57.680;11.982;2023-02-18T01:32:06;99073.34;;;4.24;70.98
54872;BME280;43914;57.680;11.982;2023-02-18T01:34:32;99091.48;;;4.21;70.73
54872;BME280;43914;57.680;11.982;2023-02-18T01:36:58;99098.90;;;4.19;70.87
54872;BME280;43914;57.680;11.982;2023-02-18T01:39:23;99103.75;;;4.17;71.05
54872;BME280;43914;57.680;11.982;2023-02-18T01:41:49;99112.67;;;4.13;70.33
54872;BME280;43914;57.680;11.982;2023-02-18T01:44:21;99121.12;;;4.12;70.70
54872;BME280;43914;57.680;11.982;2023-02-18T01:46:47;99127.25;;;4.11;70.15
54872;BME280;43914;57.680;11.982;2023-02-18T01:49:17;99128.88;;;4.11;69.75
54872;BME280;43914;57.680;11.982;2023-02-18T01:51:50;99145.54;;;4.10;69.21
54872;BME280;43914;57.680;11.982;2023-02-18T01:54:28;99138.31;;;4.08;69.66
54872;BME280;43914;57.680;11.982;2023-02-18T01:57:05;99149.60;;;4.05;69.62
54872;BME280;43914;57.680;11.982;2023-02-18T01:59:36;99156.42;;;4.03;69.53
54872;BME280;43914;57.680;11.982;2023-02-18T02:02:03;99148.79;;;3.89;69.46
54872;BME280;43914;57.680;11.982;2023-02-18T02:04:30;99164.61;;;3.89;69.22
54872;BME280;43914;57.680;11.982;2023-02-18T02:06:55;99179.67;;;3.98;68.47
54872;BME280;43914;57.680;11.982;2023-02-18T02:09:23;99177.73;;;3.98;68.61
54872;BME280;43914;57.680;11.982;2023-02-18T02:39:41;99223.09;;;3.87;65.38
54872;BME280;43914;57.680;11.982;2023-02-18T02:44:42;99228.94;;;3.86;66.72
54872;BME280;43914;57.680;11.982;2023-02-18T02:47:34;99232.77;;;3.85;67.12
54872;BME280;43914;57.680;11.982;2023-02-18T02:50:26;99233.61;;;3.83;67.77
54872;BME280;43914;57.680;11.982;2023-02-18T02:53:01;99242.96;;;3.82;68.36
54872;BME280;43914;57.680;11.982;2023-02-18T02:55:29;99249.21;;;3.81;68.60
54872;BME280;43914;57.680;11.982;2023-02-18T02:57:55;99252.39;;;3.79;68.70
54872;BME280;43914;57.680;11.982;2023-02-18T03:09:17;99268.73;;;3.72;69.04
54872;BME280;43914;57.680;11.982;2023-02-18T03:11:57;99265.73;;;3.71;69.17
54872;BME280;43914;57.680;11.982;2023-02-18T03:14:32;99266.04;;;3.69;69.65
54872;BME280;43914;57.680;11.982;2023-02-18T03:17:11;99272.95;;;3.68;69.69
54872;BME280;43914;57.680;11.982;2023-02-18T03:19:47;99282.89;;;3.68;70.18
54872;BME280;43914;57.680;11.982;2023-02-18T03:22:20;99293.29;;;3.67;70.30
54872;BME280;43914;57.680;11.982;2023-02-18T03:24:51;99280.36;;;3.68;71.09
54872;BME280;43914;57.680;11.982;2023-02-18T03:29:59;99284.45;;;3.66;72.98
54872;BME280;43914;57.680;11.982;2023-02-18T03:32:26;99291.73;;;3.65;73.65
54872;BME280;43914;57.680;11.982;2023-02-18T03:34:58;99284.98;;;3.63;74.31
54872;BME280;43914;57.680;11.982;2023-02-18T03:37:25;99302.05;;;3.63;74.80
54872;BME280;43914;57.680;11.982;2023-02-18T03:39:54;99290.70;;;3.61;75.04
54872;BME280;43914;57.680;11.982;2023-02-18T03:42:26;99298.41;;;3.62;75.02
54872;BME280;43914;57.680;11.982;2023-02-18T03:44:52;99298.73;;;3.62;74.91
54872;BME280;43914;57.680;11.982;2023-02-18T03:47:17;99312.17;;;3.62;75.04
54872;BME280;43914;57.680;11.982;2023-02-18T03:49:43;99315.15;;;3.61;75.21
54872;BME280;43914;57.680;11.982;2023-02-18T03:52:09;99326.67;;;3.61;75.53
54872;BME280;43914;57.680;11.982;2023-02-18T03:54:35;99312.86;;;3.61;75.93
54872;BME280;43914;57.680;11.982;2023-02-18T03:57:01;99321.09;;;3.60;76.24
54872;BME280;43914;57.680;11.982;2023-02-18T03:59:26;99330.56;;;3.60;76.46
54872;BME280;43914;57.680;11.982;2023-02-18T04:01:52;99322.03;;;3.60;76.70
54872;BME280;43914;57.680;11.982;2023-02-18T04:04:17;99322.92;;;3.60;77.06
54872;BME280;43914;57.680;11.982;2023-02-18T04:06:43;99328.44;;;3.60;77.26
54872;BME280;43914;57.680;11.982;2023-02-18T04:09:09;99318.30;;;3.60;77.32
54872;BME280;43914;57.680;11.982;2023-02-18T04:11:38;99322.05;;;3.58;77.48
54872;BME280;43914;57.680;11.982;2023-02-18T04:14:04;99326.55;;;3.56;77.76
54872;BME280;43914;57.680;11.982;2023-02-18T04:16:30;99331.34;;;3.54;78.03
54872;BME280;43914;57.680;11.982;2023-02-18T04:18:56;99321.60;;;3.56;78.77
54872;BME280;43914;57.680;11.982;2023-02-18T04:21:21;99325.80;;;3.55;79.41
54872;BME280;43914;57.680;11.982;2023-02-18T04:23:47;99334.00;;;3.54;80.00
54872;BME280;43914;57.680;11.982;2023-02-18T04:26:12;99339.19;;;3.54;80.39
54872;BME280;43914;57.680;11.982;2023-02-18T04:28:38;99345.30;;;3.53;80.79
54872;BME280;43914;57.680;11.982;2023-02-18T04:31:04;99346.92;;;3.53;81.05
54872;BME280;43914;57.680;11.982;2023-02-18T04:33:30;99355.50;;;3.52;81.32
54872;BME280;43914;57.680;11.982;2023-02-18T04:35:55;99354.66;;;3.53;81.57
54872;BME280;43914;57.680;11.982;2023-02-18T04:38:21;99353.75;;;3.52;82.12
54872;BME280;43914;57.680;11.982;2023-02-18T04:40:47;99351.65;;;3.52;82.34
54872;BME280;43914;57.680;11.982;2023-02-18T04:43:13;99341.65;;;3.51;82.51
54872;BME280;43914;57.680;11.982;2023-02-18T04:45:38;99348.41;;;3.49;82.72
54872;BME280;43914;57.680;11.982;2023-02-18T04:48:04;99345.63;;;3.47;83.24
54872;BME280;43914;57.680;11.982;2023-02-18T04:50:30;99364.49;;;3.44;83.45
54872;BME280;43914;57.680;11.982;2023-02-18T04:52:55;99351.22;;;3.44;83.60
54872;BME280;43914;57.680;11.982;2023-02-18T04:55:21;99354.41;;;3.44;83.50
54872;BME280;43914;57.680;11.982;2023-02-18T04:57:46;99345.84;;;3.45;83.25
54872;BME280;43914;57.680;11.982;2023-02-18T05:00:15;99341.08;;;3.46;83.46
54872;BME280;43914;57.680;11.982;2023-02-18T05:02:41;99357.52;;;3.47;83.42
54872;BME280;43914;57.680;11.982;2023-02-18T05:05:06;99354.03;;;3.46;83.36
54872;BME280;43914;57.680;11.982;2023-02-18T05:07:32;99362.00;;;3.46;83.64
54872;BME280;43914;57.680;11.982;2023-02-18T05:09:57;99351.41;;;3.45;83.90
54872;BME280;43914;57.680;11.982;2023-02-18T05:12:23;99359.74;;;3.45;84.23
54872;BME280;43914;57.680;11.982;2023-02-18T05:14:48;99358.32;;;3.46;84.60
54872;BME280;43914;57.680;11.982;2023-02-18T05:17:14;99354.03;;;3.46;85.10
54872;BME280;43914;57.680;11.982;2023-02-18T05:19:39;99353.05;;;3.46;85.36
54872;BME280;43914;57.680;11.982;2023-02-18T05:22:05;99360.25;;;3.44;85.59
54872;BME280;43914;57.680;11.982;2023-02-18T05:24:30;99350.09;;;3.43;85.90
54872;BME280;43914;57.680;11.982;2023-02-18T05:26:56;99353.86;;;3.43;86.09
54872;BME280;43914;57.680;11.982;2023-02-18T05:29:21;99359.70;;;3.43;86.24
54872;BME280;43914;57.680;11.982;2023-02-18T05:31:47;99361.67;;;3.42;86.30
54872;BME280;43914;57.680;11.982;2023-02-18T05:34:12;99361.88;;;3.41;86.44
54872;BME280;43914;57.680;11.982;2023-02-18T05:36:38;99365.96;;;3.40;86.45
54872;BME280;43914;57.680;11.982;2023-02-18T05:39:03;99362.94;;;3.41;86.72
54872;BME280;43914;57.680;11.982;2023-02-18T05:41:29;99366.36;;;3.40;86.78
54872;BME280;43914;57.680;11.982;2023-02-18T05:43:54;99365.57;;;3.39;86.85
54872;BME280;43914;57.680;11.982;2023-02-18T05:46:39;99368.63;;;3.37;86.89
54872;BME280;43914;57.680;11.982;2023-02-18T05:49:04;99364.52;;;3.34;87.05
54872;BME280;43914;57.680;11.982;2023-02-18T05:51:30;99370.33;;;3.35;87.08
54872;BME280;43914;57.680;11.982;2023-02-18T05:53:55;99365.92;;;3.35;87.07
54872;BME280;43914;57.680;11.982;2023-02-18T05:56:21;99369.34;;;3.34;87.25
54872;BME280;43914;57.680;11.982;2023-02-18T05:58:47;99372.99;;;3.33;87.45
54872;BME280;43914;57.680;11.982;2023-02-18T06:01:12;99369.54;;;3.34;87.50
54872;BME280;43914;57.680;11.982;2023-02-18T06:03:38;99366.05;;;3.33;87.60
54872;BME280;43914;57.680;11.982;2023-02-18T06:06:04;99372.30;;;3.33;87.76
54872;BME280;43914;57.680;11.982;2023-02-18T06:08:29;99367.88;;;3.33;87.91
54872;BME280;43914;57.680;11.982;2023-02-18T06:10:55;99365.16;;;3.33;87.87
54872;BME280;43914;57.680;11.982;2023-02-18T06:13:20;99360.58;;;3.33;87.86
54872;BME280;43914;57.680;11.982;2023-02-18T06:15:49;99362.14;;;3.32;87.86
54872;BME280;43914;57.680;11.982;2023-02-18T06:18:15;99369.79;;;3.30;87.97
54872;BME280;43914;57.680;11.982;2023-02-18T06:20:41;99369.12;;;3.31;87.94
54872;BME280;43914;57.680;11.982;2023-02-18T06:23:07;99363.81;;;3.31;87.96
54872;BME280;43914;57.680;11.982;2023-02-18T06:25:32;99371.34;;;3.32;87.93
54872;BME280;43914;57.680;11.982;2023-02-18T06:27:58;99371.84;;;3.31;87.94
54872;BME280;43914;57.680;11.982;2023-02-18T06:30:23;99372.64;;;3.31;87.93
54872;BME280;43914;57.680;11.982;2023-02-18T06:32:49;99374.23;;;3.33;87.84
54872;BME280;43914;57.680;11.982;2023-02-18T06:35:14;99379.00;;;3.33;87.93
54872;BME280;43914;57.680;11.982;2023-02-18T06:37:41;99378.17;;;3.32;88.03
54872;BME280;43914;57.680;11.982;2023-02-18T06:40:07;99377.73;;;3.33;88.09
54872;BME280;43914;57.680;11.982;2023-02-18T06:42:32;99380.27;;;3.35;88.24
54872;BME280;43914;57.680;11.982;2023-02-18T06:44:58;99392.02;;;3.34;88.40
54872;BME280;43914;57.680;11.982;2023-02-18T06:47:23;99385.45;;;3.34;88.45
54872;BME280;43914;57.680;11.982;2023-02-18T06:49:49;99387.66;;;3.35;88.61
54872;BME280;43914;57.680;11.982;2023-02-18T06:52:15;99384.48;;;3.35;88.65
54872;BME280;43914;57.680;11.982;2023-02-18T06:54:40;99388.59;;;3.36;88.76
54872;BME280;43914;57.680;11.982;2023-02-18T06:57:06;99392.48;;;3.36;88.57
54872;BME280;43914;57.680;11.982;2023-02-18T06:59:32;99389.55;;;3.37;88.57
54872;BME280;43914;57.680;11.982;2023-02-18T07:01:57;99388.69;;;3.37;88.52
54872;BME280;43914;57.680;11.982;2023-02-18T07:04:23;99391.27;;;3.37;88.63
54872;BME280;43914;57.680;11.982;2023-02-18T07:06:49;99389.88;;;3.39;88.76
54872;BME280;43914;57.680;11.982;2023-02-18T07:09:14;99397.49;;;3.42;88.55
54872;BME280;43914;57.680;11.982;2023-02-18T07:11:40;99398.94;;;3.42;88.42
54872;BME280;43914;57.680;11.982;2023-02-18T07:14:06;99394.28;;;3.44;88.19
54872;BME280;43914;57.680;11.982;2023-02-18T07:16:31;99397.73;;;3.46;88.54
54872;BME280;43914;57.680;11.982;2023-02-18T07:18:57;99399.27;;;3.49;88.25
54872;BME280;43914;57.680;11.982;2023-02-18T07:21:22;99402.75;;;3.49;88.11
54872;BME280;43914;57.680;11.982;2023-02-18T07:23:48;99402.71;;;3.51;88.07
54872;BME280;43914;57.680;11.982;2023-02-18T07:26:13;99406.13;;;3.52;88.05
54872;BME280;43914;57.680;11.982;2023-02-18T07:28:40;99404.17;;;3.52;87.86
54872;BME280;43914;57.680;11.982;2023-02-18T07:31:06;99408.32;;;3.53;87.78
54872;BME280;43914;57.680;11.982;2023-02-18T07:33:32;99405.54;;;3.53;87.62
54872;BME280;43914;57.680;11.982;2023-02-18T07:35:59;99407.48;;;3.54;87.64
54872;BME280;43914;57.680;11.982;2023-02-18T07:38:26;99410.90;;;3.54;87.12
54872;BME280;43914;57.680;11.982;2023-02-18T07:40:53;99400.83;;;3.55;87.28
54872;BME280;43914;57.680;11.982;2023-02-18T07:43:20;99407.77;;;3.56;87.06
54872;BME280;43914;57.680;11.982;2023-02-18T07:45:46;99410.10;;;3.58;87.02
54872;BME280;43914;57.680;11.982;2023-02-18T07:48:12;99409.20;;;3.60;86.77
54872;BME280;43914;57.680;11.982;2023-02-18T07:50:42;99415.94;;;3.61;86.64
54872;BME280;43914;57.680;11.982;2023-02-18T07:53:09;99414.02;;;3.62;86.44
54872;BME280;43914;57.680;11.982;2023-02-18T07:55:36;99414.69;;;3.65;86.25
54872;BME280;43914;57.680;11.982;2023-02-18T07:58:21;99424.54;;;3.67;86.27
54872;BME280;43914;57.680;11.982;2023-02-18T08:00:47;99423.14;;;3.68;86.21
54872;BME280;43914;57.680;11.982;2023-02-18T08:03:15;99425.77;;;3.70;86.00
54872;BME280;43914;57.680;11.982;2023-02-18T08:05:41;99422.39;;;3.71;86.16
54872;BME280;43914;57.680;11.982;2023-02-18T08:08:11;99418.30;;;3.73;86.15
54872;BME280;43914;57.680;11.982;2023-02-18T08:10:38;99426.87;;;3.76;85.96
54872;BME280;43914;57.680;11.982;2023-02-18T08:13:03;99425.14;;;3.77;86.12
54872;BME280;43914;57.680;11.982;2023-02-18T08:15:29;99427.84;;;3.80;86.33
54872;BME280;43914;57.680;11.982;2023-02-18T08:17:55;99427.94;;;3.82;86.46
54872;BME280;43914;57.680;11.982;2023-02-18T08:20:20;99426.23;;;3.83;86.50
54872;BME280;43914;57.680;11.982;2023-02-18T08:22:47;99428.77;;;3.86;86.69
54872;BME280;43914;57.680;11.982;2023-02-18T08:25:13;99423.89;;;3.87;86.71
54872;BME280;43914;57.680;11.982;2023-02-18T08:27:38;99431.48;;;3.87;86.60
54872;BME280;43914;57.680;11.982;2023-02-18T08:30:06;99434.05;;;3.88;86.68
54872;BME280;43914;57.680;11.982;2023-02-18T08:32:32;99434.62;;;3.89;86.62
54872;BME280;43914;57.680;11.982;2023-02-18T08:34:57;99440.13;;;3.91;86.76
54872;BME280;43914;57.680;11.982;2023-02-18T08:37:23;99440.76;;;3.91;86.66
54872;BME280;43914;57.680;11.982;2023-02-18T08:39:50;99450.40;;;3.91;86.12
54872;BME280;43914;57.680;11.982;2023-02-18T08:42:15;99442.89;;;3.90;86.13
54872;BME280;43914;57.680;11.982;2023-02-18T08:44:41;99448.38;;;3.89;85.97
54872;BME280;43914;57.680;11.982;2023-02-18T08:47:07;99455.11;;;3.90;86.02
54872;BME280;43914;57.680;11.982;2023-02-18T08:49:33;99454.78;;;3.89;86.03
54872;BME280;43914;57.680;11.982;2023-02-18T08:52:01;99447.02;;;3.91;86.14
54872;BME280;43914;57.680;11.982;2023-02-18T08:54:27;99458.03;;;3.94;86.14
54872;BME280;43914;57.680;11.982;2023-02-18T08:56:54;99462.77;;;3.94;85.45
54872;BME280;43914;57.680;11.982;2023-02-18T08:59:22;99454.30;;;3.95;85.55
54872;BME280;43914;57.680;11.982;2023-02-18T09:01:48;99457.27;;;3.99;86.00
54872;BME280;43914;57.680;11.982;2023-02-18T09:04:13;99461.02;;;4.03;85.88
54872;BME280;43914;57.680;11.982;2023-02-18T09:06:39;99458.98;;;4.11;85.93
54872;BME280;43914;57.680;11.982;2023-02-18T09:09:05;99460.86;;;4.16;85.62
54872;BME280;43914;57.680;11.982;2023-02-18T09:11:31;99457.86;;;4.19;84.90
54872;BME280;43914;57.680;11.982;2023-02-18T09:13:57;99464.12;;;4.25;84.64
54872;BME280;43914;57.680;11.982;2023-02-18T09:16:22;99473.45;;;4.32;84.28
54872;BME280;43914;57.680;11.982;2023-02-18T09:18:48;99469.95;;;4.38;83.91
54872;BME280;43914;57.680;11.982;2023-02-18T09:21:16;99471.70;;;4.41;83.44
54872;BME280;43914;57.680;11.982;2023-02-18T09:23:43;99472.73;;;4.44;83.20
54872;BME280;43914;57.680;11.982;2023-02-18T09:26:12;99484.35;;;4.52;82.85
54872;BME280;43914;57.680;11.982;2023-02-18T09:28:39;99471.33;;;4.60;83.08
54872;BME280;43914;57.680;11.982;2023-02-18T09:31:07;99479.06;;;4.65;82.43
54872;BME280;43914;57.680;11.982;2023-02-18T09:33:38;99481.75;;;4.67;80.71
54872;BME280;43914;57.680;11.982;2023-02-18T09:36:04;99469.05;;;4.66;80.00
54872;BME280;43914;57.680;11.982;2023-02-18T09:38:30;99474.33;;;4.68;80.82
54872;BME280;43914;57.680;11.982;2023-02-18T09:40:59;99476.48;;;4.69;80.34
54872;BME280;43914;57.680;11.982;2023-02-18T09:43:30;99481.27;;;4.71;80.39
54872;BME280;43914;57.680;11.982;2023-02-18T09:45:58;99479.94;;;4.73;80.35
54872;BME280;43914;57.680;11.982;2023-02-18T09:48:31;99476.84;;;4.77;80.67
54872;BME280;43914;57.680;11.982;2023-02-18T09:50:58;99478.70;;;4.81;80.48
54872;BME280;43914;57.680;11.982;2023-02-18T09:53:24;99483.43;;;4.83;79.84
54872;BME280;43914;57.680;11.982;2023-02-18T09:55:54;99481.75;;;4.85;80.20
54872;BME280;43914;57.680;11.982;2023-02-18T09:58:30;99484.16;;;4.89;80.56
54872;BME280;43914;57.680;11.982;2023-02-18T10:01:09;99480.73;;;4.92;80.58
54872;BME280;43914;57.680;11.982;2023-02-18T10:03:36;99485.25;;;4.96;79.92
54872;BME280;43914;57.680;11.982;2023-02-18T10:06:10;99491.13;;;4.99;80.02
54872;BME280;43914;57.680;11.982;2023-02-18T10:08:48;99494.20;;;4.99;79.00
54872;BME280;43914;57.680;11.982;2023-02-18T10:11:23;99486.31;;;5.03;80.70
54872;BME280;43914;57.680;11.982;2023-02-18T10:14:13;99488.67;;;5.14;80.71
54872;BME280;43914;57.680;11.982;2023-02-18T10:16:42;99487.41;;;5.13;79.82
54872;BME280;43914;57.680;11.982;2023-02-18T10:19:36;99490.92;;;5.17;79.92
54872;BME280;43914;57.680;11.982;2023-02-18T10:22:07;99492.07;;;5.19;78.67
54872;BME280;43914;57.680;11.982;2023-02-18T10:25:01;99490.02;;;5.18;78.10
54872;BME280;43914;57.680;11.982;2023-02-18T10:27:34;99486.95;;;5.18;78.70
54872;BME280;43914;57.680;11.982;2023-02-18T10:32:42;99486.05;;;5.17;77.37
54872;BME280;43914;57.680;11.982;2023-02-18T10:35:39;99483.55;;;5.19;78.07
54872;BME280;43914;57.680;11.982;2023-02-18T10:38:22;99471.70;;;5.22;78.42
54872;BME280;43914;57.680;11.982;2023-02-18T10:51:21;99477.67;;;5.17;74.80
54872;BME280;43914;57.680;11.982;2023-02-18T10:53:49;99480.85;;;5.16;75.46
54872;BME280;43914;57.680;11.982;2023-02-18T10:56:38;99478.95;;;5.29;78.28
54872;BME280;43914;57.680;11.982;2023-02-18T10:59:25;99484.88;;;5.30;75.71
54872;BME280;43914;57.680;11.982;2023-02-18T11:02:02;99483.58;;;5.27;74.97
54872;BME280;43914;57.680;11.982;2023-02-18T11:04:43;99480.67;;;5.27;75.51
54872;BME280;43914;57.680;11.982;2023-02-18T11:07:15;99485.95;;;5.26;75.51
54872;BME280;43914;57.680;11.982;2023-02-18T11:09:56;99493.02;;;5.28;75.39
54872;BME280;43914;57.680;11.982;2023-02-18T11:12:43;99481.39;;;5.28;75.69
54872;BME280;43914;57.680;11.982;2023-02-18T11:17:42;99486.27;;;5.37;76.22
54872;BME280;43914;57.680;11.982;2023-02-18T11:20:30;99492.95;;;5.36;74.08
54872;BME280;43914;57.680;11.982;2023-02-18T11:23:16;99489.56;;;5.30;73.38
54872;BME280;43914;57.680;11.982;2023-02-18T11:26:01;99487.41;;;5.28;74.56
54872;BME280;43914;57.680;11.982;2023-02-18T11:31:38;99484.97;;;5.34;74.36
54872;BME280;43914;57.680;11.982;2023-02-18T11:34:05;99485.90;;;5.40;74.89
54872;BME280;43914;57.680;11.982;2023-02-18T11:36:34;99488.07;;;5.42;73.69
54872;BME280;43914;57.680;11.982;2023-02-18T11:43:57;99499.84;;;5.42;69.93
54872;BME280;43914;57.680;11.982;2023-02-18T11:46:25;99468.44;;;5.28;70.87
54872;BME280;43914;57.680;11.982;2023-02-18T11:48:51;99491.05;;;5.41;70.97
54872;BME280;43914;57.680;11.982;2023-02-18T11:51:19;99486.27;;;5.47;72.01
54872;BME280;43914;57.680;11.982;2023-02-18T11:54:09;99485.12;;;5.59;72.61
54872;BME280;43914;57.680;11.982;2023-02-18T11:56:55;99491.52;;;5.71;72.12
54872;BME280;43914;57.680;11.982;2023-02-18T11:59:22;99489.06;;;5.76;71.65
54872;BME280;43914;57.680;11.982;2023-02-18T12:01:56;99485.27;;;5.81;71.06
54872;BME280;43914;57.680;11.982;2023-02-18T12:04:45;99490.86;;;5.85;70.08
54872;BME280;43914;57.680;11.982;2023-02-18T12:07:20;99484.12;;;5.81;68.94
54872;BME280;43914;57.680;11.982;2023-02-18T12:09:53;99479.40;;;5.80;70.16
54872;BME280;43914;57.680;11.982;2023-02-18T12:12:50;99460.27;;;5.69;69.72
54872;BME280;43914;57.680;11.982;2023-02-18T12:15:40;99468.51;;;5.73;69.20
54872;BME280;43914;57.680;11.982;2023-02-18T12:18:19;99482.78;;;5.78;69.04
54872;BME280;43914;57.680;11.982;2023-02-18T12:24:00;99485.96;;;5.72;66.64
54872;BME280;43914;57.680;11.982;2023-02-18T12:32:38;99480.88;;;5.63;63.65
54872;BME280;43914;57.680;11.982;2023-02-18T12:40:16;99488.12;;;5.50;61.68
54872;BME280;43914;57.680;11.982;2023-02-18T13:01:34;99483.31;;;5.26;64.15
54872;BME280;43914;57.680;11.982;2023-02-18T13:12:43;99484.96;;;5.28;62.24
54872;BME280;43914;57.680;11.982;2023-02-18T13:17:56;99486.83;;;5.19;62.76
54872;BME280;43914;57.680;11.982;2023-02-18T13:20:50;99491.33;;;5.16;62.36
54872;BME280;43914;57.680;11.982;2023-02-18T13:23:20;99495.09;;;5.11;60.09
54872;BME280;43914;57.680;11.982;2023-02-18T13:25:52;99491.68;;;5.05;60.27
54872;BME280;43914;57.680;11.982;2023-02-18T13:33:55;99497.65;;;4.98;62.08
54872;BME280;43914;57.680;11.982;2023-02-18T13:39:20;99500.59;;;4.89;62.88
54872;BME280;43914;57.680;11.982;2023-02-18T13:41:48;99507.05;;;4.86;63.19
54872;BME280;43914;57.680;11.982;2023-02-18T13:47:46;99504.25;;;4.79;63.67
54872;BME280;43914;57.680;11.982;2023-02-18T13:59:01;99494.67;;;4.70;64.34
54872;BME280;43914;57.680;11.982;2023-02-18T14:01:48;99507.95;;;4.69;64.36
54872;BME280;43914;57.680;11.982;2023-02-18T14:10:00;99512.94;;;4.56;63.13
54872;BME280;43914;57.680;11.982;2023-02-18T14:25:52;99525.48;;;4.36;62.67
54872;BME280;43914;57.680;11.982;2023-02-18T14:28:38;99529.70;;;4.31;62.73
54872;BME280;43914;57.680;11.982;2023-02-18T14:31:20;99538.58;;;4.28;63.06
54872;BME280;43914;57.680;11.982;2023-02-18T14:50:33;99555.16;;;4.10;63.09
54872;BME280;43914;57.680;11.982;2023-02-18T14:53:05;99560.34;;;4.06;62.72
54872;BME280;43914;57.680;11.982;2023-02-18T14:55:37;99567.46;;;4.04;63.10
54872;BME280;43914;57.680;11.982;2023-02-18T14:58:11;99577.38;;;4.04;63.16
54872;BME280;43914;57.680;11.982;2023-02-18T15:00:41;99580.95;;;4.01;62.06
54872;BME280;43914;57.680;11.982;2023-02-18T15:03:13;99579.20;;;3.99;61.45
54872;BME280;43914;57.680;11.982;2023-02-18T15:05:44;99579.56;;;3.97;61.85
54872;BME280;43914;57.680;11.982;2023-02-18T15:08:20;99576.88;;;3.96;62.24
54872;BME280;43914;57.680;11.982;2023-02-18T15:11:02;99585.13;;;3.93;61.85
54872;BME280;43914;57.680;11.982;2023-02-18T15:13:35;99585.27;;;3.90;61.83
54872;BME280;43914;57.680;11.982;2023-02-18T15:16:05;99582.86;;;3.88;61.59
54872;BME280;43914;57.680;11.982;2023-02-18T15:18:41;99586.43;;;3.86;61.58
54872;BME280;43914;57.680;11.982;2023-02-18T15:21:21;99592.98;;;3.83;62.53
54872;BME280;43914;57.680;11.982;2023-02-18T15:23:50;99600.33;;;3.81;62.57
54872;BME280;43914;57.680;11.982;2023-02-18T15:26:16;99596.81;;;3.77;62.89
54872;BME280;43914;57.680;11.982;2023-02-18T15:28:57;99600.38;;;3.75;62.65
54872;BME280;43914;57.680;11.982;2023-02-18T15:31:28;99598.17;;;3.73;63.32
54872;BME280;43914;57.680;11.982;2023-02-18T15:33:54;99605.95;;;3.70;63.67
54872;BME280;43914;57.680;11.982;2023-02-18T15:36:20;99605.92;;;3.68;64.04
54872;BME280;43914;57.680;11.982;2023-02-18T15:38:46;99603.96;;;3.67;64.46
54872;BME280;43914;57.680;11.982;2023-02-18T15:41:17;99604.89;;;3.65;64.53
54872;BME280;43914;57.680;11.982;2023-02-18T15:43:57;99604.44;;;3.62;64.92
54872;BME280;43914;57.680;11.982;2023-02-18T15:46:26;99601.45;;;3.59;65.38
54872;BME280;43914;57.680;11.982;2023-02-18T15:48:53;99609.27;;;3.57;65.71
54872;BME280;43914;57.680;11.982;2023-02-18T15:51:24;99616.26;;;3.55;65.63
54872;BME280;43914;57.680;11.982;2023-02-18T15:54:00;99615.26;;;3.52;65.70
54872;BME280;43914;57.680;11.982;2023-02-18T15:56:35;99625.30;;;3.51;65.81
54872;BME280;43914;57.680;11.982;2023-02-18T16:01:35;99636.52;;;3.46;66.12